PWSweather.com
Personal Weather Stations
Station Observations
KWABLAIN13
Ptl Weather, Blaine, WA

Ptl WeatherBlaine, WA

Lat: 48.997393, Lon: -122.748614

Elevation: 57

Station Type: Davis Advantage Pro 2

http://www.ptlnet.net

Latest ConditionsUpdated 7:10:03 AM PST Friday, Dec 19, 2014
Currently Today's Max Today's Min Today's Average
Temperature 46.7°F8.2°C 49.6°F9.8°C 46.6°F8.1°C 47.6°F8.7°C
Dew Point 45.1°F7.3°C 46.7°F8.2°C 44.8°F7.1°C 45.4°F7.4°C
Winds 3.0 mph SSW4.8 kmh SSW 10.0 mph SE16.1 kmh SE - 4.8 mph 7.7 kmh
Wind Gusts 7.0 mph11.3 kmh 13.0 mph20.9 kmh - -
Humidity 94% 94% 89% 92%
Pressure 29.80 in1009.1 mb 29.80 in1009.1 mb 29.70 in1005.8 mb -
Hour Temp Dew Point Humidity Winds Wind Gusts Pressure Precip Precip Rate Daily Precip Total
07:10 AM 46.7°F8.2°C 45.1°F7.3°C 94% 3.0 mph SSW4.8 kmh SSW 7.0 mph11.3 kmh 29.80 in1009.1 mb 0.00 in0.0 mm 0.00 in/hr0.0 mm/hr 0.04 in1.0 mm
07:04 AM 46.7°F8.2°C 45.1°F7.3°C 94% 1.0 mph S1.6 kmh S 7.0 mph11.3 kmh 29.80 in1009.1 mb 0.00 in0.0 mm 0.00 in/hr0.0 mm/hr 0.04 in1.0 mm
06:49 AM 46.7°F8.2°C 45.1°F7.3°C 94% 2.0 mph SSE3.2 kmh SSE 6.0 mph9.7 kmh 29.80 in1009.1 mb 0.00 in0.0 mm 0.00 in/hr0.0 mm/hr 0.04 in1.0 mm
06:45 AM 46.7°F8.2°C 45.1°F7.3°C 94% 4.0 mph SE6.4 kmh SE 6.0 mph9.7 kmh 29.79 in1008.8 mb 0.00 in0.0 mm 0.00 in/hr0.0 mm/hr 0.04 in1.0 mm
06:30 AM 46.6°F8.1°C 45.0°F7.2°C 94% 2.0 mph SE3.2 kmh SE 11.0 mph17.7 kmh 29.79 in1008.8 mb 0.01 in0.3 mm 0.00 in/hr0.0 mm/hr 0.04 in1.0 mm
06:25 AM 46.7°F8.2°C 45.1°F7.3°C 94% 4.0 mph SE6.4 kmh SE 7.0 mph11.3 kmh 29.79 in1008.8 mb 0.01 in0.3 mm 0.00 in/hr0.0 mm/hr 0.04 in1.0 mm
06:10 AM 46.7°F8.2°C 44.8°F7.1°C 93% 3.0 mph SE4.8 kmh SE 7.0 mph11.3 kmh 29.78 in1008.5 mb 0.01 in0.3 mm 0.00 in/hr0.0 mm/hr 0.04 in1.0 mm
06:05 AM 46.8°F8.2°C 44.9°F7.2°C 93% 5.0 mph SE8.0 kmh SE 7.0 mph11.3 kmh 29.78 in1008.5 mb 0.01 in0.3 mm 0.00 in/hr0.0 mm/hr 0.04 in1.0 mm
05:50 AM 46.9°F8.3°C 45.0°F7.2°C 93% 4.0 mph SSE6.4 kmh SSE 7.0 mph11.3 kmh 29.77 in1008.1 mb 0.01 in0.3 mm 0.00 in/hr0.0 mm/hr 0.04 in1.0 mm
05:44 AM 46.9°F8.3°C 45.0°F7.2°C 93% 4.0 mph SSE6.4 kmh SSE 6.0 mph9.7 kmh 29.77 in1008.1 mb 0.01 in0.3 mm 0.04 in/hr1.0 mm/hr 0.04 in1.0 mm
05:30 AM 47.1°F8.4°C 45.2°F7.3°C 93% 4.0 mph SSE6.4 kmh SSE 8.0 mph12.9 kmh 29.77 in1008.1 mb 0.00 in0.0 mm 0.00 in/hr0.0 mm/hr 0.03 in0.8 mm
05:25 AM 47.1°F8.4°C 44.9°F7.2°C 92% 6.0 mph SE9.7 kmh SE 8.0 mph12.9 kmh 29.77 in1008.1 mb 0.00 in0.0 mm 0.00 in/hr0.0 mm/hr 0.03 in0.8 mm
05:10 AM 47.1°F8.4°C 44.9°F7.2°C 92% 4.0 mph SE6.4 kmh SE 8.0 mph12.9 kmh 29.77 in1008.1 mb 0.00 in0.0 mm 0.00 in/hr0.0 mm/hr 0.03 in0.8 mm
05:05 AM 47.1°F8.4°C 44.9°F7.2°C 92% 5.0 mph SE8.0 kmh SE 7.0 mph11.3 kmh 29.77 in1008.1 mb 0.00 in0.0 mm 0.00 in/hr0.0 mm/hr 0.03 in0.8 mm
04:50 AM 47.0°F8.3°C 44.8°F7.1°C 92% 7.0 mph SE11.3 kmh SE 9.0 mph14.5 kmh 29.76 in1007.8 mb 0.00 in0.0 mm 0.00 in/hr0.0 mm/hr 0.03 in0.8 mm
04:45 AM 47.0°F8.3°C 44.8°F7.1°C 92% 4.0 mph SE6.4 kmh SE 9.0 mph14.5 kmh 29.76 in1007.8 mb 0.00 in0.0 mm 0.00 in/hr0.0 mm/hr 0.03 in0.8 mm
04:30 AM 47.1°F8.4°C 44.9°F7.2°C 92% 5.0 mph SE8.0 kmh SE 8.0 mph12.9 kmh 29.76 in1007.8 mb 0.00 in0.0 mm 0.00 in/hr0.0 mm/hr 0.03 in0.8 mm
04:24 AM 47.1°F8.4°C 44.9°F7.2°C 92% 7.0 mph SE11.3 kmh SE 8.0 mph12.9 kmh 29.77 in1008.1 mb 0.00 in0.0 mm 0.00 in/hr0.0 mm/hr 0.03 in0.8 mm
04:10 AM 47.3°F8.5°C 45.1°F7.3°C 92% 4.0 mph SSE6.4 kmh SSE 11.0 mph17.7 kmh 29.76 in1007.8 mb 0.00 in0.0 mm 0.00 in/hr0.0 mm/hr 0.03 in0.8 mm
04:05 AM 47.3°F8.5°C 45.1°F7.3°C 92% 5.0 mph S8.0 kmh S 11.0 mph17.7 kmh 29.76 in1007.8 mb 0.00 in0.0 mm 0.00 in/hr0.0 mm/hr 0.03 in0.8 mm
03:50 AM 47.4°F8.6°C 45.2°F7.3°C 92% 3.0 mph S4.8 kmh S 8.0 mph12.9 kmh 29.76 in1007.8 mb 0.00 in0.0 mm 0.00 in/hr0.0 mm/hr 0.03 in0.8 mm
03:45 AM 47.4°F8.6°C 45.2°F7.3°C 92% 2.0 mph S3.2 kmh S 7.0 mph11.3 kmh 29.76 in1007.8 mb 0.00 in0.0 mm 0.00 in/hr0.0 mm/hr 0.03 in0.8 mm
03:30 AM 47.5°F8.6°C 45.3°F7.4°C 92% 7.0 mph SSE11.3 kmh SSE 7.0 mph11.3 kmh 29.76 in1007.8 mb 0.00 in0.0 mm 0.00 in/hr0.0 mm/hr 0.03 in0.8 mm
03:25 AM 47.5°F8.6°C 45.3°F7.4°C 92% 5.0 mph SE8.0 kmh SE 13.0 mph20.9 kmh 29.76 in1007.8 mb 0.00 in0.0 mm 0.00 in/hr0.0 mm/hr 0.03 in0.8 mm
03:10 AM 47.5°F8.6°C 45.3°F7.4°C 92% 5.0 mph SE8.0 kmh SE 11.0 mph17.7 kmh 29.75 in1007.5 mb 0.00 in0.0 mm 0.00 in/hr0.0 mm/hr 0.03 in0.8 mm
03:05 AM 47.6°F8.7°C 45.4°F7.4°C 92% 5.0 mph SE8.0 kmh SE 11.0 mph17.7 kmh 29.75 in1007.5 mb 0.00 in0.0 mm 0.00 in/hr0.0 mm/hr 0.03 in0.8 mm
02:50 AM 47.6°F8.7°C 45.4°F7.4°C 92% 2.0 mph S3.2 kmh S 12.0 mph19.3 kmh 29.75 in1007.5 mb 0.00 in0.0 mm 0.00 in/hr0.0 mm/hr 0.03 in0.8 mm
02:44 AM 47.5°F8.6°C 45.3°F7.4°C 92% 4.0 mph SW6.4 kmh SW 9.0 mph14.5 kmh 29.76 in1007.8 mb 0.00 in0.0 mm 0.00 in/hr0.0 mm/hr 0.03 in0.8 mm
02:30 AM 47.6°F8.7°C 45.4°F7.4°C 92% 2.0 mph S3.2 kmh S 12.0 mph19.3 kmh 29.75 in1007.5 mb 0.02 in0.5 mm 0.00 in/hr0.0 mm/hr 0.03 in0.8 mm
02:25 AM 47.7°F8.7°C 45.5°F7.5°C 92% 4.0 mph S6.4 kmh S 11.0 mph17.7 kmh 29.75 in1007.5 mb 0.02 in0.5 mm 0.00 in/hr0.0 mm/hr 0.03 in0.8 mm
02:10 AM 47.8°F8.8°C 45.6°F7.6°C 92% 5.0 mph SE8.0 kmh SE 12.0 mph19.3 kmh 29.75 in1007.5 mb 0.02 in0.5 mm 0.00 in/hr0.0 mm/hr 0.03 in0.8 mm
02:04 AM 47.8°F8.8°C 45.9°F7.7°C 93% 7.0 mph SE11.3 kmh SE 11.0 mph17.7 kmh 29.75 in1007.5 mb 0.02 in0.5 mm 0.00 in/hr0.0 mm/hr 0.03 in0.8 mm
01:50 AM 48.1°F8.9°C 46.2°F7.9°C 93% 6.0 mph SE9.7 kmh SE 10.0 mph16.1 kmh 29.75 in1007.5 mb 0.02 in0.5 mm 0.00 in/hr0.0 mm/hr 0.03 in0.8 mm
01:45 AM 48.1°F8.9°C 46.2°F7.9°C 93% 5.0 mph SE8.0 kmh SE 10.0 mph16.1 kmh 29.74 in1007.1 mb 0.02 in0.5 mm 0.00 in/hr0.0 mm/hr 0.03 in0.8 mm
01:29 AM 48.3°F9.1°C 46.1°F7.8°C 92% 3.0 mph S4.8 kmh S 11.0 mph17.7 kmh 29.73 in1006.8 mb 0.02 in0.5 mm 0.00 in/hr0.0 mm/hr 0.03 in0.8 mm
01:25 AM 48.4°F9.1°C 46.2°F7.9°C 92% 5.0 mph SSE8.0 kmh SSE 11.0 mph17.7 kmh 29.73 in1006.8 mb 0.02 in0.5 mm 0.04 in/hr1.0 mm/hr 0.03 in0.8 mm
01:10 AM 48.6°F9.2°C 46.1°F7.8°C 91% 6.0 mph S9.7 kmh S 7.0 mph11.3 kmh 29.72 in1006.4 mb 0.01 in0.3 mm 0.00 in/hr0.0 mm/hr 0.02 in0.5 mm
01:05 AM 48.6°F9.2°C 46.1°F7.8°C 91% 9.0 mph SE14.5 kmh SE 9.0 mph14.5 kmh 29.72 in1006.4 mb 0.01 in0.3 mm 0.00 in/hr0.0 mm/hr 0.02 in0.5 mm
12:50 AM 48.8°F9.3°C 46.3°F7.9°C 91% 7.0 mph S11.3 kmh S 8.0 mph12.9 kmh 29.71 in1006.1 mb 0.02 in0.5 mm 0.00 in/hr0.0 mm/hr 0.02 in0.5 mm
12:45 AM 48.8°F9.3°C 46.3°F7.9°C 91% 7.0 mph SSE11.3 kmh SSE 12.0 mph19.3 kmh 29.71 in1006.1 mb 0.02 in0.5 mm 0.00 in/hr0.0 mm/hr 0.02 in0.5 mm
12:29 AM 49.1°F9.5°C 46.3°F7.9°C 90% 4.0 mph SSE6.4 kmh SSE 13.0 mph20.9 kmh 29.70 in1005.8 mb 0.02 in0.5 mm 0.00 in/hr0.0 mm/hr 0.02 in0.5 mm
12:25 AM 49.2°F9.6°C 46.4°F8.0°C 90% 6.0 mph SE9.7 kmh SE 13.0 mph20.9 kmh 29.70 in1005.8 mb 0.02 in0.5 mm 0.04 in/hr1.0 mm/hr 0.02 in0.5 mm
12:10 AM 49.5°F9.7°C 46.7°F8.2°C 90% 10.0 mph SE16.1 kmh SE 13.0 mph20.9 kmh 29.70 in1005.8 mb 0.01 in0.3 mm 0.00 in/hr0.0 mm/hr 0.01 in0.3 mm
12:04 AM 49.6°F9.8°C 46.5°F8.1°C 89% 9.0 mph SE14.5 kmh SE 9.0 mph14.5 kmh 29.70 in1005.8 mb 0.01 in0.3 mm 0.15 in/hr3.8 mm/hr 0.01 in0.3 mm